Time;durP1;ratioP1;P1;durP2;ratioP2;P2;SDS_P1;SDS_P2;PMS_P1;PMS_P2;Temp;Humidity;BMP_temperature;BMP_pressure;BME280_temperature;BME280_humidity;BME280_pressure;Samples;Min_cycle;Max_cycle;Signal;HPM_P1;HPM_P2
2023/09/28 00:07:10;;;;;;;8.13;6.70;;;;;;;13.27;100.00;99723.50;5646592;23;20256;-89
2023/09/28 00:09:39;;;;;;;9.30;7.03;;;;;;;13.23;100.00;99720.47;4904508;29;20288;-89
2023/09/28 00:12:11;;;;;;;7.80;7.00;;;;;;;13.16;100.00;99720.56;4928286;29;20395;-89
2023/09/28 00:14:43;;;;;;;7.13;6.50;;;;;;;13.12;100.00;99715.88;4888125;29;20210;-90
2023/09/28 00:17:14;;;;;;;8.03;7.23;;;;;;;13.07;100.00;99713.03;4907288;29;20213;-88
2023/09/28 06:35:15;;;;;;;18.30;12.57;;;;;;;14.02;100.00;99797.84;5714558;23;20311;-82
2023/09/28 06:37:46;;;;;;;15.07;12.53;;;;;;;14.15;100.00;99796.75;4935565;29;20219;-82
2023/09/28 06:40:16;;;;;;;14.03;12.10;;;;;;;14.28;100.00;99793.78;4933942;29;20231;-82
2023/09/28 06:42:44;;;;;;;14.90;13.37;;;;;;;14.39;100.00;99794.84;4935265;29;20721;-82
2023/09/28 06:45:12;;;;;;;14.17;12.70;;;;;;;14.51;100.00;99793.72;4935023;29;20194;-82
2023/09/28 06:47:42;;;;;;;14.60;12.60;;;;;;;14.67;100.00;99802.91;4937288;29;20224;-82
2023/09/28 06:50:25;;;;;;;15.37;13.07;;;;;;;14.80;100.00;99799.91;4936781;29;20731;-82
2023/09/28 06:52:53;;;;;;;13.63;11.77;;;;;;;14.93;100.00;99801.50;4920614;29;20265;-82
2023/09/28 06:55:27;;;;;;;13.10;11.90;;;;;;;15.00;100.00;99802.16;4937107;29;20216;-82
2023/09/28 06:57:55;;;;;;;13.30;11.87;;;;;;;15.14;100.00;99797.25;4932378;29;20234;-82
2023/09/28 07:00:22;;;;;;;12.70;11.47;;;;;;;15.27;100.00;99802.31;4915664;29;20253;-83
2023/09/28 07:02:55;;;;;;;14.40;12.93;;;;;;;15.39;100.00;99801.19;4916415;29;20210;-82
2023/09/28 07:05:23;;;;;;;13.03;11.17;;;;;;;15.52;100.00;99810.03;4919016;29;20217;-83
2023/09/28 07:07:50;;;;;;;14.60;12.27;;;;;;;15.63;100.00;99814.53;4922683;29;20201;-83
2023/09/28 07:10:21;;;;;;;13.77;11.73;;;;;;;15.78;100.00;99801.22;4926275;29;20197;-82
2023/09/28 07:12:48;;;;;;;16.10;11.63;;;;;;;15.92;100.00;99807.06;4921499;29;20194;-83
2023/09/28 07:15:19;;;;;;;13.60;12.10;;;;;;;16.03;100.00;99808.84;4933199;29;20414;-82
2023/09/28 07:17:49;;;;;;;13.20;11.80;;;;;;;16.16;100.00;99805.78;4928673;29;20218;-82
2023/09/28 07:20:16;;;;;;;12.37;11.03;;;;;;;16.23;100.00;99807.25;4922197;29;20198;-82
2023/09/28 07:22:43;;;;;;;13.37;10.40;;;;;;;16.34;100.00;99807.34;4928619;29;20288;-82
2023/09/28 07:25:15;;;;;;;12.17;10.50;;;;;;;16.44;100.00;99805.56;4919015;29;20194;-83
2023/09/28 07:27:52;;;;;;;11.77;10.67;;;;;;;16.49;100.00;99807.50;4932813;29;20206;-83
2023/09/28 07:30:25;;;;;;;12.53;10.20;;;;;;;16.60;100.00;99812.00;4927665;29;20692;-82
2023/09/28 07:32:52;;;;;;;12.77;10.67;;;;;;;16.67;100.00;99812.59;4937846;29;20217;-82
2023/09/28 07:35:20;;;;;;;11.63;10.20;;;;;;;16.75;100.00;99814.06;4930522;29;20325;-83
2023/09/28 07:37:47;;;;;;;14.63;10.17;;;;;;;16.80;100.00;99814.13;4926836;29;20233;-84
2023/09/28 07:40:17;;;;;;;14.40;10.50;;;;;;;16.90;100.00;99811.47;4933475;29;20734;-82
2023/09/28 07:42:59;;;;;;;13.60;9.63;;;;;;;17.05;100.00;99817.03;4934290;29;20210;-82
2023/09/28 07:45:27;;;;;;;10.73;9.63;;;;;;;17.15;100.00;99809.84;4927967;29;20226;-82
2023/09/28 07:47:55;;;;;;;12.50;9.80;;;;;;;17.23;100.00;99808.53;4931579;29;20198;-83
2023/09/28 07:50:25;;;;;;;9.63;8.50;;;;;;;17.41;100.00;99812.72;4931967;29;20198;-82
2023/09/28 07:52:54;;;;;;;8.87;8.07;;;;;;;17.55;100.00;99806.59;4923236;29;20205;-82
2023/09/28 07:55:24;;;;;;;9.57;8.67;;;;;;;17.74;100.00;99806.22;4925882;29;20284;-83
2023/09/28 07:57:51;;;;;;;11.50;8.60;;;;;;;17.81;100.00;99804.09;4921047;29;20314;-82
2023/09/28 08:00:40;;;;;;;10.10;8.73;;;;;;;17.88;100.00;99797.34;4914150;29;20307;-82
2023/09/28 08:03:09;;;;;;;10.07;8.33;;;;;;;17.98;100.00;99800.13;4923627;29;20668;-83
2023/09/28 08:05:40;;;;;;;8.97;7.73;;;;;;;18.11;100.00;99793.38;4923696;29;20220;-82
2023/09/28 08:08:18;;;;;;;11.53;8.90;;;;;;;18.21;100.00;99792.63;4931309;29;20196;-83
2023/09/28 08:10:47;;;;;;;9.30;8.40;;;;;;;18.33;100.00;99793.22;4921618;29;20216;-88
2023/09/28 08:13:19;;;;;;;10.63;8.13;;;;;;;18.45;100.00;99788.38;4927833;29;20307;-83
2023/09/28 08:15:46;;;;;;;11.50;8.53;;;;;;;18.53;100.00;99789.72;4930429;29;20208;-82
2023/09/28 08:18:18;;;;;;;11.40;8.33;;;;;;;18.58;100.00;99801.44;4927238;29;20590;-82
2023/09/28 08:20:51;;;;;;;10.33;8.47;;;;;;;18.63;100.00;99790.59;4904185;29;20206;-82
2023/09/28 08:23:37;;;;;;;10.37;7.63;;;;;;;18.85;100.00;99799.31;4921349;29;20207;-83
2023/09/28 08:26:10;;;;;;;9.83;7.37;;;;;;;18.99;100.00;99794.19;4923194;29;20257;-82
2023/09/28 08:28:38;;;;;;;8.03;7.23;;;;;;;19.12;100.00;99796.38;4922349;29;20201;-82
2023/09/28 08:31:10;;;;;;;10.30;7.40;;;;;;;19.27;100.00;99795.56;4918044;29;20206;-83
2023/09/28 08:33:39;;;;;;;8.80;7.60;;;;;;;19.38;100.00;99791.75;4909102;29;20240;-82
2023/09/28 08:36:13;;;;;;;9.20;7.53;;;;;;;19.51;100.00;99793.09;4924580;29;20232;-82
2023/09/28 08:38:43;;;;;;;16.17;7.50;;;;;;;19.65;100.00;99799.59;4917759;29;20311;-82
2023/09/28 08:41:11;;;;;;;7.63;6.87;;;;;;;19.76;100.00;99793.06;4917964;29;20592;-82
2023/09/28 08:44:05;;;;;;;9.83;7.33;;;;;;;19.94;100.00;99797.91;4929579;29;20203;-82
2023/09/28 08:46:38;;;;;;;8.53;6.87;;;;;;;20.07;100.00;99791.06;4917667;29;20285;-83
2023/09/28 08:49:15;;;;;;;10.63;7.13;;;;;;;20.21;100.00;99783.94;4905137;29;20200;-82
2023/09/28 08:51:47;;;;;;;8.33;6.90;;;;;;;20.36;100.00;99786.63;4924022;29;20237;-84
2023/09/28 08:54:15;;;;;;;10.60;6.83;;;;;;;20.53;100.00;99784.34;4908624;29;20209;-82
2023/09/28 08:56:44;;;;;;;9.53;7.57;;;;;;;20.65;100.00;99787.56;4884904;29;20578;-82
2023/09/28 08:59:16;;;;;;;10.13;6.53;;;;;;;20.77;100.00;99784.47;4901827;29;20317;-82
2023/09/28 09:01:47;;;;;;;8.15;6.47;;;;;;;20.91;100.00;99779.19;4925473;29;20277;-82
2023/09/28 09:04:14;;;;;;;10.30;6.32;;;;;;;21.02;100.00;99772.59;4935660;29;20206;-82
2023/09/28 09:06:42;;;;;;;8.20;6.90;;;;;;;21.15;100.00;99780.13;4936258;29;20189;-82
2023/09/28 09:09:14;;;;;;;7.85;6.47;;;;;;;21.30;100.00;99776.47;4936413;29;20244;-82
2023/09/28 09:11:51;;;;;;;8.27;6.65;;;;;;;21.34;100.00;99780.25;4924666;29;20197;-80
2023/09/28 09:14:27;;;;;;;11.48;7.65;;;;;;;21.45;100.00;99770.88;4928215;29;20686;-80
2023/09/28 09:16:55;;;;;;;8.50;7.57;;;;;;;21.62;100.00;99771.25;4910756;29;20258;-82
2023/09/28 09:19:29;;;;;;;7.90;6.85;;;;;;;21.80;100.00;99775.94;4935808;29;20189;-81
2023/09/28 09:21:58;;;;;;;10.68;6.50;;;;;;;21.90;100.00;99775.84;4926203;29;20200;-83
2023/09/28 09:24:25;;;;;;;9.90;6.13;;;;;;;22.02;100.00;99774.66;4936126;29;20288;-82
2023/09/28 09:26:52;;;;;;;10.98;7.05;;;;;;;22.17;100.00;99775.28;4921972;29;20202;-80
2023/09/28 09:29:22;;;;;;;8.63;5.60;;;;;;;22.25;100.00;99765.63;4936007;29;20194;-80
2023/09/28 09:31:51;;;;;;;7.30;6.25;;;;;;;22.44;100.00;99771.94;4930662;29;20258;-80
2023/09/28 09:34:22;;;;;;;7.97;6.10;;;;;;;22.59;100.00;99774.44;4923676;29;20281;-80
2023/09/28 09:36:56;;;;;;;9.10;6.35;;;;;;;22.79;100.00;99767.88;4918995;29;20309;-80
2023/09/28 09:39:32;;;;;;;9.57;5.90;;;;;;;22.94;100.00;99766.84;4928601;29;20230;-80
2023/09/28 09:42:05;;;;;;;7.65;5.82;;;;;;;23.16;100.00;99764.28;4913385;29;20261;-81
2023/09/28 09:44:35;;;;;;;7.75;5.28;;;;;;;23.41;100.00;99763.88;4916776;29;20208;-81
2023/09/28 09:47:03;;;;;;;6.00;5.15;;;;;;;23.60;100.00;99759.16;4916549;29;20206;-80
2023/09/28 09:49:40;;;;;;;6.70;4.80;;;;;;;23.90;100.00;99760.47;4920522;29;20207;-88
2023/09/28 09:52:10;;;;;;;10.27;5.15;;;;;;;24.07;100.00;99749.75;4897044;29;20206;-87
2023/09/28 09:54:43;;;;;;;6.85;4.90;;;;;;;24.23;100.00;99747.50;4886575;29;20202;-87
2023/09/28 09:57:19;;;;;;;9.13;5.20;;;;;;;24.44;100.00;99750.63;4885853;29;20209;-87
2023/09/28 09:59:50;;;;;;;5.43;4.85;;;;;;;24.63;100.00;99736.78;4880445;29;20229;-87
2023/09/28 10:02:25;;;;;;;8.77;4.75;;;;;;;24.84;100.00;99737.91;4896867;29;20225;-87
2023/09/28 10:04:55;;;;;;;8.68;5.28;;;;;;;24.99;100.00;99734.84;4900368;29;20213;-87
2023/09/28 10:07:32;;;;;;;8.48;5.32;;;;;;;25.12;100.00;99744.09;4882908;29;20228;-88
2023/09/28 10:10:15;;;;;;;7.70;4.75;;;;;;;25.21;100.00;99734.81;4886563;29;20206;-87
2023/09/28 10:12:42;;;;;;;8.05;5.05;;;;;;;25.29;100.00;99742.25;4904045;29;20199;-88
2023/09/28 10:15:13;;;;;;;8.60;5.28;;;;;;;25.50;100.00;99737.06;4889663;29;20300;-86
2023/09/28 10:17:40;;;;;;;7.68;5.25;;;;;;;25.70;98.75;99733.81;4914479;29;20346;-87
2023/09/28 10:20:15;;;;;;;7.70;5.07;;;;;;;25.77;96.89;99727.84;4887308;29;20217;-87
2023/09/28 10:22:47;;;;;;;6.68;4.72;;;;;;;25.80;95.21;99729.97;4907783;29;20281;-88
2023/09/28 10:25:20;;;;;;;10.10;5.35;;;;;;;25.82;95.26;99730.44;4892488;29;20257;-87
2023/09/28 10:27:48;;;;;;;8.10;4.90;;;;;;;25.94;94.27;99736.16;4888362;29;20209;-87
2023/09/28 10:30:26;;;;;;;7.85;4.90;;;;;;;26.03;92.68;99726.00;4915454;29;20236;-87
2023/09/28 10:33:00;;;;;;;12.15;5.30;;;;;;;26.20;92.49;99722.47;4911266;29;20217;-90
2023/09/28 10:35:29;;;;;;;7.63;5.07;;;;;;;26.29;87.12;99717.84;4912955;29;20234;-86
2023/09/28 10:38:22;;;;;;;9.18;4.82;;;;;;;26.38;86.39;99715.91;4891544;29;20412;-87
2023/09/28 10:40:59;;;;;;;5.30;4.80;;;;;;;26.41;86.72;99712.50;4899359;29;20205;-87
2023/09/28 10:43:31;;;;;;;7.22;5.03;;;;;;;26.41;84.29;99715.25;4917699;29;20229;-87
2023/09/28 10:46:07;;;;;;;7.75;5.30;;;;;;;26.53;83.62;99712.69;4903797;29;20224;-87
2023/09/28 10:48:41;;;;;;;9.23;5.00;;;;;;;26.61;83.73;99705.56;4911497;29;20206;-88
2023/09/28 10:51:16;;;;;;;7.18;4.90;;;;;;;26.71;83.23;99702.50;4890766;29;20197;-87
2023/09/28 10:53:45;;;;;;;8.98;4.72;;;;;;;26.86;84.27;99709.47;4901349;29;20201;-87
2023/09/28 10:56:13;;;;;;;5.50;4.47;;;;;;;26.88;79.82;99707.19;4903363;29;20659;-86
2023/09/28 10:58:41;;;;;;;7.35;4.28;;;;;;;26.91;72.19;99699.13;4916780;29;20229;-86
2023/09/28 11:01:10;;;;;;;5.38;4.88;;;;;;;27.01;75.03;99708.97;4893405;29;20209;-86
2023/09/28 11:03:41;;;;;;;6.10;4.00;;;;;;;27.07;72.64;99711.19;4914221;29;20213;-85
2023/09/28 11:06:14;;;;;;;7.75;4.57;;;;;;;27.16;70.37;99711.19;4911931;29;20224;-86
2023/09/28 11:08:42;;;;;;;6.10;4.30;;;;;;;27.25;68.83;99711.97;4912783;29;20199;-86
2023/09/28 11:11:17;;;;;;;5.80;4.30;;;;;;;27.29;67.54;99696.44;4927651;29;20205;-86
2023/09/28 11:13:46;;;;;;;6.47;4.40;;;;;;;27.20;67.08;99698.41;4905606;29;20205;-85
2023/09/28 11:16:16;;;;;;;6.60;4.30;;;;;;;27.29;64.88;99698.38;4884478;29;20198;-86
2023/09/28 11:18:49;;;;;;;6.15;4.18;;;;;;;27.23;63.67;99696.94;4892205;29;20225;-86
2023/09/28 11:21:17;;;;;;;6.03;4.50;;;;;;;27.29;64.71;99698.38;4912983;29;20197;-86
2023/09/28 11:23:51;;;;;;;5.00;4.50;;;;;;;27.33;62.53;99694.66;4930169;29;20226;-85
2023/09/28 11:26:22;;;;;;;7.35;4.32;;;;;;;27.41;62.61;99684.72;4902289;29;20269;-85
2023/09/28 11:28:50;;;;;;;7.72;4.50;;;;;;;27.43;63.74;99690.72;4909717;29;20212;-85
2023/09/28 11:31:18;;;;;;;8.15;4.75;;;;;;;27.46;62.44;99695.56;4907092;29;20201;-85
2023/09/28 11:33:49;;;;;;;4.70;4.30;;;;;;;27.34;63.48;99690.72;4928142;29;20217;-85
2023/09/28 11:36:33;;;;;;;6.32;3.92;;;;;;;27.43;62.28;99671.47;4903726;29;20238;-85
2023/09/28 11:39:06;;;;;;;5.32;4.47;;;;;;;27.38;60.80;99679.91;4934396;29;20781;-85
2023/09/28 11:41:54;;;;;;;5.22;4.43;;;;;;;27.53;61.86;99679.38;4908969;29;20202;-86
2023/09/28 11:44:26;;;;;;;5.38;4.05;;;;;;;27.70;59.59;99684.00;4902521;29;20198;-85
2023/09/28 11:47:01;;;;;;;6.78;4.28;;;;;;;27.66;61.42;99672.03;4909138;29;21471;-85
2023/09/28 11:49:36;;;;;;;7.78;4.13;;;;;;;27.70;59.34;99675.75;4923848;29;20199;-85
2023/09/28 11:52:13;;;;;;;6.55;4.07;;;;;;;27.54;60.76;99676.28;4921129;29;20202;-85
2023/09/28 11:54:43;;;;;;;5.50;4.40;;;;;;;27.64;59.66;99663.28;4923575;29;20685;-85
2023/09/28 11:57:11;;;;;;;6.80;4.20;;;;;;;27.54;60.02;99664.47;4924899;29;20675;-84
2023/09/28 11:59:38;;;;;;;6.03;4.20;;;;;;;27.66;58.36;99661.84;4928321;29;20221;-85
2023/09/28 12:02:09;;;;;;;4.45;3.90;;;;;;;27.73;57.72;99664.88;4928615;29;20202;-85
2023/09/28 12:04:37;;;;;;;6.03;3.92;;;;;;;27.77;57.91;99667.75;4908875;29;20198;-85
2023/09/28 12:07:06;;;;;;;6.95;4.07;;;;;;;27.90;58.20;99664.75;4907708;29;20667;-85
2023/09/28 12:09:34;;;;;;;5.88;4.22;;;;;;;27.90;57.73;99664.75;4930897;29;20210;-85
2023/09/28 12:12:11;;;;;;;8.80;4.60;;;;;;;28.02;56.62;99653.03;4929555;29;20244;-86
2023/09/28 12:14:40;;;;;;;8.60;4.40;;;;;;;27.96;59.29;99657.94;4905069;29;20210;-86
2023/09/28 12:17:09;;;;;;;5.97;4.38;;;;;;;28.04;59.33;99662.56;4919587;29;20202;-85
2023/09/28 12:19:38;;;;;;;7.20;4.45;;;;;;;28.00;57.04;99661.63;4930148;29;20256;-85
2023/09/28 12:22:05;;;;;;;4.68;3.90;;;;;;;27.91;55.85;99654.56;4894182;29;20197;-85
2023/09/28 12:24:33;;;;;;;7.50;4.53;;;;;;;27.90;54.95;99659.25;4907057;29;20232;-85
2023/09/28 12:27:03;;;;;;;6.93;4.25;;;;;;;27.94;56.25;99651.97;4926459;29;20207;-86
2023/09/28 12:29:32;;;;;;;5.15;4.45;;;;;;;27.98;54.66;99658.41;4924828;29;20199;-85
2023/09/28 12:32:04;;;;;;;5.97;4.05;;;;;;;27.98;54.95;99654.84;4910950;29;20209;-85
2023/09/28 12:34:32;;;;;;;6.30;3.92;;;;;;;28.08;54.82;99662.72;4921239;29;20205;-86
2023/09/28 12:37:03;;;;;;;7.07;4.38;;;;;;;28.11;53.25;99647.50;4890950;29;20221;-86
2023/09/28 12:39:32;;;;;;;4.72;3.92;;;;;;;28.08;54.34;99645.38;4905832;29;20252;-85
2023/09/28 12:42:03;;;;;;;4.95;4.45;;;;;;;28.11;52.19;99650.25;4909614;29;20217;-85
2023/09/28 12:44:32;;;;;;;6.15;4.30;;;;;;;28.05;52.69;99646.84;4898505;29;20199;-84
2023/09/28 12:47:04;;;;;;;5.60;4.20;;;;;;;28.15;52.43;99645.69;4906377;29;20214;-85
2023/09/28 12:49:32;;;;;;;6.40;4.05;;;;;;;28.12;51.03;99638.09;4912658;29;20334;-86
2023/09/28 12:52:01;;;;;;;5.32;4.18;;;;;;;28.17;51.98;99643.41;4903904;29;20199;-85
2023/09/28 12:54:33;;;;;;;4.43;3.80;;;;;;;28.19;51.73;99652.13;4880156;29;20230;-85
2023/09/28 12:57:04;;;;;;;4.95;4.38;;;;;;;28.24;52.62;99638.97;4886158;29;20207;-85
2023/09/28 12:59:32;;;;;;;5.35;4.03;;;;;;;28.09;52.77;99641.50;4907786;29;20226;-87
2023/09/28 13:02:02;;;;;;;8.57;4.25;;;;;;;28.14;50.32;99639.34;4907149;29;20225;-85
2023/09/28 13:04:35;;;;;;;8.82;4.57;;;;;;;28.09;49.00;99638.75;4908128;29;20225;-84
2023/09/28 13:07:06;;;;;;;4.38;3.97;;;;;;;28.08;51.79;99634.38;4907211;29;20216;-85
2023/09/28 13:09:43;;;;;;;6.53;4.82;;;;;;;28.02;51.53;99629.06;4903982;29;20205;-85
2023/09/28 13:12:12;;;;;;;5.63;3.95;;;;;;;28.05;50.89;99633.06;4904381;29;20195;-85
2023/09/28 13:14:39;;;;;;;6.32;4.15;;;;;;;27.88;51.59;99635.97;4916651;29;20273;-84
2023/09/28 13:17:06;;;;;;;4.88;4.13;;;;;;;27.92;50.21;99634.16;4917411;29;20206;-85
2023/09/28 13:19:39;;;;;;;4.68;4.28;;;;;;;27.96;51.14;99637.84;4915859;29;20321;-85
2023/09/28 13:22:06;;;;;;;5.05;3.92;;;;;;;28.02;50.81;99626.31;4900444;29;20266;-85
2023/09/28 13:24:34;;;;;;;7.25;3.92;;;;;;;28.13;50.85;99631.44;4909138;29;20702;-86
2023/09/28 13:27:05;;;;;;;5.80;4.40;;;;;;;28.17;49.19;99624.94;4904893;29;20415;-85
2023/09/28 13:29:34;;;;;;;7.07;4.32;;;;;;;28.10;48.85;99624.63;4916907;29;20206;-85
2023/09/28 13:32:02;;;;;;;11.77;4.18;;;;;;;28.21;47.88;99619.56;4885027;29;20202;-85
2023/09/28 13:34:44;;;;;;;4.88;4.25;;;;;;;28.20;48.58;99618.75;4900305;29;20191;-85
2023/09/28 13:37:17;;;;;;;4.95;4.40;;;;;;;28.23;49.43;99618.06;4900838;29;20281;-85
2023/09/28 13:39:49;;;;;;;5.22;4.60;;;;;;;28.31;49.63;99619.16;4929811;29;20225;-83
2023/09/28 13:42:21;;;;;;;4.97;4.50;;;;;;;28.26;49.63;99622.09;4928704;29;20198;-85
2023/09/28 13:44:48;;;;;;;5.60;4.35;;;;;;;28.22;50.62;99612.91;4923535;29;20205;-85
2023/09/28 13:47:18;;;;;;;5.22;4.55;;;;;;;28.06;50.70;99614.59;4911706;29;20222;-85
2023/09/28 13:49:45;;;;;;;8.55;4.68;;;;;;;28.08;49.74;99626.91;4908304;29;20222;-85
2023/09/28 13:52:15;;;;;;;6.55;4.35;;;;;;;28.00;50.48;99619.50;4926525;29;20210;-84
2023/09/28 13:54:45;;;;;;;7.80;4.65;;;;;;;27.99;51.33;99618.72;4888313;29;20208;-84
2023/09/28 13:57:14;;;;;;;5.00;4.40;;;;;;;27.97;50.87;99621.00;4920588;29;20285;-85
2023/09/28 13:59:45;;;;;;;5.75;4.45;;;;;;;27.90;51.88;99617.94;4890071;29;20237;-86
2023/09/28 14:02:15;;;;;;;4.82;4.30;;;;;;;27.83;51.36;99619.63;4886910;29;20671;-85
2023/09/28 14:04:46;;;;;;;6.10;4.60;;;;;;;27.82;51.49;99610.56;4904404;29;20199;-84
2023/09/28 14:07:13;;;;;;;5.30;4.40;;;;;;;27.83;51.25;99603.13;4899533;29;20694;-84
2023/09/28 14:09:43;;;;;;;5.05;4.40;;;;;;;27.77;51.68;99610.75;4900220;29;20210;-84
2023/09/28 14:12:13;;;;;;;8.45;4.35;;;;;;;27.70;51.67;99607.75;4884560;29;20202;-84
2023/09/28 14:14:44;;;;;;;6.75;4.50;;;;;;;27.70;51.97;99606.94;4900319;29;20206;-84
2023/09/28 14:17:11;;;;;;;5.85;4.82;;;;;;;27.71;51.42;99614.06;4923859;29;20212;-84
2023/09/28 14:20:10;;;;;;;7.13;4.90;;;;;;;27.65;53.00;99607.94;4923117;29;20222;-84
2023/09/28 14:22:38;;;;;;;5.18;4.60;;;;;;;27.57;52.18;99608.78;4919411;29;20216;-85
2023/09/28 14:25:08;;;;;;;5.38;4.88;;;;;;;27.53;52.85;99608.63;4918470;29;20202;-84
2023/09/28 14:27:36;;;;;;;8.20;4.80;;;;;;;27.47;53.49;99606.38;4925893;29;20286;-85
2023/09/28 14:30:07;;;;;;;7.47;5.00;;;;;;;27.38;53.41;99598.19;4922503;29;20206;-84
2023/09/28 14:32:40;;;;;;;7.97;4.90;;;;;;;27.32;53.87;99606.94;4928832;29;20288;-84
2023/09/28 14:35:07;;;;;;;7.05;4.82;;;;;;;27.34;53.29;99607.44;4903336;29;20246;-84
2023/09/28 14:37:43;;;;;;;5.13;4.63;;;;;;;27.21;53.91;99608.44;4912529;29;20226;-84
2023/09/28 14:40:12;;;;;;;8.80;5.25;;;;;;;27.15;54.30;99605.09;4905345;29;20601;-84
2023/09/28 14:42:44;;;;;;;8.70;4.75;;;;;;;27.16;54.55;99610.25;4913240;29;20285;-85
2023/09/28 14:45:16;;;;;;;8.32;5.00;;;;;;;27.15;54.38;99614.16;4915643;29;20277;-85
2023/09/28 14:47:43;;;;;;;4.50;4.10;;;;;;;27.11;55.10;99607.66;4905734;29;20203;-85
2023/09/28 14:50:10;;;;;;;5.35;4.85;;;;;;;27.06;54.91;99610.59;4912540;29;20781;-84
2023/09/28 14:52:42;;;;;;;6.93;4.72;;;;;;;26.96;55.50;99605.47;4898528;29;20226;-84
2023/09/28 14:55:14;;;;;;;6.50;4.80;;;;;;;26.91;56.24;99604.84;4901702;29;20206;-86
2023/09/28 14:57:43;;;;;;;6.82;5.10;;;;;;;26.86;56.06;99605.00;4895717;29;20203;-83
2023/09/28 15:00:15;;;;;;;7.13;5.07;;;;;;;26.70;56.84;99604.69;4903138;29;20603;-84
2023/09/28 15:02:43;;;;;;;6.88;5.18;;;;;;;26.64;56.29;99601.31;4899582;29;20203;-84
2023/09/28 15:05:15;;;;;;;8.77;5.30;;;;;;;26.57;56.43;99603.75;4892935;29;20199;-85
2023/09/28 15:07:44;;;;;;;7.25;5.88;;;;;;;26.54;56.22;99604.41;4897870;29;20207;-85
2023/09/28 15:10:13;;;;;;;7.88;5.65;;;;;;;26.42;57.58;99606.19;4896888;29;20194;-85
2023/09/28 15:12:43;;;;;;;6.00;5.15;;;;;;;26.34;57.45;99605.06;4900934;29;20649;-84
2023/09/28 15:15:17;;;;;;;6.28;5.57;;;;;;;26.26;57.49;99600.41;4901664;29;20214;-84
2023/09/28 15:17:44;;;;;;;11.23;5.57;;;;;;;26.18;57.61;99598.41;4898806;29;20230;-84
2023/09/28 15:20:14;;;;;;;7.47;5.65;;;;;;;26.09;58.20;99608.59;4909334;29;20223;-84
2023/09/28 15:22:42;;;;;;;6.93;5.60;;;;;;;25.96;59.26;99596.63;4903194;29;20207;-85
2023/09/28 15:25:15;;;;;;;6.05;5.30;;;;;;;25.93;59.01;99608.28;4899551;29;20282;-87
2023/09/28 15:27:42;;;;;;;5.80;4.75;;;;;;;25.85;58.62;99598.88;4883221;29;20259;-87
2023/09/28 15:30:14;;;;;;;8.00;5.38;;;;;;;25.75;58.79;99590.16;4898387;29;20262;-86
2023/09/28 15:32:45;;;;;;;5.80;5.30;;;;;;;25.71;58.93;99605.66;4902735;29;20250;-84
2023/09/28 15:35:15;;;;;;;6.07;5.47;;;;;;;25.64;59.40;99597.06;4917160;29;20229;-84
2023/09/28 15:37:43;;;;;;;5.75;4.97;;;;;;;25.64;60.21;99597.06;4933868;29;20681;-82
2023/09/28 15:40:14;;;;;;;7.20;5.80;;;;;;;25.50;60.63;99601.84;4905881;29;20257;-84
2023/09/28 15:42:41;;;;;;;6.35;5.10;;;;;;;25.38;60.79;99606.00;4910808;29;20199;-85
2023/09/28 15:45:09;;;;;;;6.53;5.10;;;;;;;25.27;61.13;99609.38;4909979;29;20624;-84
2023/09/28 15:47:39;;;;;;;6.88;5.32;;;;;;;25.10;61.16;99601.88;4927843;29;20241;-84
2023/09/28 15:50:09;;;;;;;8.85;5.22;;;;;;;25.00;61.58;99596.69;4916911;29;20205;-84
2023/09/28 15:52:39;;;;;;;6.20;5.40;;;;;;;24.87;62.08;99597.59;4899529;29;20315;-84
2023/09/28 15:55:09;;;;;;;7.68;5.10;;;;;;;24.77;62.74;99600.56;4906507;29;20281;-85
2023/09/28 15:57:37;;;;;;;6.95;5.03;;;;;;;24.67;63.35;99598.06;4928388;29;20213;-84
2023/09/28 16:00:10;;;;;;;9.93;4.93;;;;;;;24.67;64.00;99596.16;4917169;29;20297;-84
2023/09/28 16:03:01;;;;;;;8.05;5.18;;;;;;;24.41;64.89;99601.44;4911608;29;20190;-84
2023/09/28 16:05:28;;;;;;;7.40;5.00;;;;;;;24.36;64.98;99600.75;4911809;29;20202;-84
2023/09/28 16:07:58;;;;;;;10.05;5.20;;;;;;;24.24;66.14;99612.28;4936920;29;20194;-83
2023/09/28 16:10:34;;;;;;;8.50;5.30;;;;;;;24.08;66.56;99609.03;4905784;29;20263;-84
2023/09/28 16:13:06;;;;;;;5.93;5.00;;;;;;;23.99;66.69;99613.63;4920772;29;20261;-84
2023/09/28 16:15:36;;;;;;;5.70;5.13;;;;;;;23.92;67.55;99613.25;4923535;29;20225;-84
2023/09/28 16:18:07;;;;;;;6.53;5.03;;;;;;;23.78;67.79;99611.66;4923569;29;20248;-84
2023/09/28 16:20:37;;;;;;;7.18;5.40;;;;;;;23.69;68.63;99617.03;4923465;29;20273;-84
2023/09/28 16:23:06;;;;;;;8.55;5.30;;;;;;;23.60;69.79;99625.16;4900969;29;20585;-84
2023/09/28 16:25:40;;;;;;;6.13;5.47;;;;;;;23.50;69.94;99622.63;4906029;29;20692;-83
2023/09/28 16:28:09;;;;;;;7.72;5.75;;;;;;;23.38;70.18;99622.28;4921749;29;20276;-83
2023/09/28 16:30:38;;;;;;;11.52;5.38;;;;;;;23.26;71.65;99624.72;4928751;29;20291;-83
2023/09/28 16:33:05;;;;;;;8.70;5.55;;;;;;;23.14;72.45;99619.75;4931129;29;20201;-84
2023/09/28 16:35:33;;;;;;;6.95;5.50;;;;;;;23.05;72.86;99621.56;4926436;29;20241;-85
2023/09/28 16:38:02;;;;;;;6.40;5.30;;;;;;;23.01;73.32;99628.72;4928072;29;20198;-83
2023/09/28 16:40:29;;;;;;;6.75;5.47;;;;;;;22.90;74.36;99623.78;4924380;29;20282;-83
2023/09/28 16:42:57;;;;;;;7.05;5.60;;;;;;;22.81;75.71;99627.19;4926761;29;20767;-84
2023/09/28 16:45:32;;;;;;;8.65;5.88;;;;;;;22.69;76.64;99634.19;4925715;29;20209;-84
2023/09/28 16:48:00;;;;;;;7.45;5.40;;;;;;;22.60;77.84;99634.06;4925503;29;20197;-83
2023/09/28 16:50:31;;;;;;;6.05;5.25;;;;;;;22.59;78.06;99634.34;4902144;29;20814;-83
2023/09/28 16:53:01;;;;;;;10.15;5.80;;;;;;;22.44;79.53;99637.34;4908925;29;20718;-83
2023/09/28 16:55:34;;;;;;;9.88;5.80;;;;;;;22.34;80.35;99630.13;4920762;29;20205;-84
2023/09/28 16:58:01;;;;;;;6.43;5.88;;;;;;;22.31;81.51;99631.53;4921662;29;20224;-83
2023/09/28 17:00:29;;;;;;;8.05;5.70;;;;;;;22.14;82.71;99633.97;4924160;29;20226;-84
2023/09/28 17:02:58;;;;;;;9.52;5.63;;;;;;;22.07;84.38;99632.75;4901583;29;20223;-84
2023/09/28 17:05:27;;;;;;;8.90;5.60;;;;;;;22.00;85.53;99630.38;4894920;29;20288;-84
2023/09/28 17:07:58;;;;;;;9.13;5.65;;;;;;;21.97;86.42;99627.41;4924859;29;20207;-85
2023/09/28 17:10:28;;;;;;;6.47;5.82;;;;;;;21.84;87.78;99631.63;4890526;29;20198;-85
2023/09/28 17:12:55;;;;;;;7.35;5.78;;;;;;;21.73;88.98;99632.88;4903527;29;20206;-85
2023/09/28 17:15:23;;;;;;;6.30;5.70;;;;;;;21.66;91.36;99629.69;4924519;29;20273;-84
2023/09/28 17:17:53;;;;;;;7.20;5.68;;;;;;;21.62;93.07;99634.13;4915630;29;20206;-84
2023/09/28 17:20:32;;;;;;;9.45;5.80;;;;;;;21.52;94.44;99626.88;4916566;29;20227;-83
2023/09/28 17:23:00;;;;;;;7.75;6.43;;;;;;;21.43;96.33;99632.16;4925116;29;20198;-85
2023/09/28 17:25:29;;;;;;;6.50;5.90;;;;;;;21.44;97.09;99632.97;4925110;29;20192;-84
2023/09/28 17:27:57;;;;;;;6.43;5.82;;;;;;;21.35;98.77;99645.63;4927003;29;20199;-85
2023/09/28 17:30:32;;;;;;;7.80;5.80;;;;;;;21.32;98.92;99646.22;4916154;29;20693;-84
2023/09/28 17:32:59;;;;;;;6.15;5.60;;;;;;;21.28;99.08;99650.59;4932526;29;20253;-87
2023/09/28 17:35:26;;;;;;;6.25;5.65;;;;;;;21.16;100.00;99652.91;4934484;29;20312;-85
2023/09/28 17:37:53;;;;;;;8.57;5.50;;;;;;;21.08;100.00;99657.03;4927472;29;20197;-84
2023/09/28 17:40:25;;;;;;;9.23;5.78;;;;;;;21.04;100.00;99658.72;4902441;29;20240;-85
2023/09/28 17:42:53;;;;;;;8.25;5.72;;;;;;;20.96;100.00;99657.41;4918418;29;20201;-85
2023/09/28 17:45:20;;;;;;;6.57;5.97;;;;;;;20.91;100.00;99656.66;4901256;29;20570;-85
2023/09/28 17:47:49;;;;;;;6.30;5.53;;;;;;;20.87;100.00;99663.78;4917604;29;20194;-86
2023/09/28 17:50:17;;;;;;;8.55;5.97;;;;;;;20.82;100.00;99666.53;4918259;29;20201;-85
2023/09/28 17:52:44;;;;;;;8.57;5.90;;;;;;;20.77;100.00;99672.84;4917608;29;20215;-86
2023/09/28 17:55:18;;;;;;;6.80;6.10;;;;;;;20.72;100.00;99674.81;4921338;29;20195;-85
2023/09/28 17:57:47;;;;;;;6.03;5.30;;;;;;;20.63;100.00;99680.03;4924233;29;20222;-86
2023/09/28 18:00:14;;;;;;;6.43;5.72;;;;;;;20.62;100.00;99678.44;4921836;29;20210;-85
2023/09/28 18:02:42;;;;;;;8.02;5.80;;;;;;;20.59;100.00;99681.69;4918081;29;20297;-85
2023/09/28 18:05:09;;;;;;;6.85;5.75;;;;;;;20.53;100.00;99682.84;4900801;29;20199;-85